Time;durP1;ratioP1;P1;durP2;ratioP2;P2;SDS_P1;SDS_P2;PMS_P1;PMS_P2;Temp;Humidity;BMP_temperature;BMP_pressure;BME280_temperature;BME280_humidity;BME280_pressure;Samples;Min_cycle;Max_cycle;Signal;HPM_P1;HPM_P2
2021/09/03 00:02:08;;;;;;;4.55;3.85;;;;;;;21.16;54.66;102573.50;4934986;29;20154;-71
2021/09/03 00:04:34;;;;;;;5.85;4.43;;;;;;;21.15;54.69;102574.34;4936164;29;20075;-72
2021/09/03 00:06:59;;;;;;;6.57;4.93;;;;;;;21.15;54.86;102569.97;4918924;29;20039;-71
2021/09/03 00:09:25;;;;;;;5.78;4.30;;;;;;;21.14;54.39;102567.31;4934771;29;20107;-72
2021/09/03 00:11:50;;;;;;;6.80;4.70;;;;;;;21.12;54.76;102567.28;4903070;29;20043;-72
2021/09/03 00:14:15;;;;;;;5.50;4.88;;;;;;;21.14;54.71;102569.94;4921688;29;20502;-71
2021/09/03 00:16:41;;;;;;;5.25;4.13;;;;;;;21.11;54.81;102559.38;4922633;29;20051;-72
2021/09/03 00:19:06;;;;;;;6.43;4.80;;;;;;;21.14;54.77;102559.44;4922575;29;20055;-71
2021/09/03 00:21:32;;;;;;;5.15;4.10;;;;;;;21.14;54.67;102562.06;4938509;29;20040;-72
2021/09/03 00:23:57;;;;;;;4.88;3.53;;;;;;;21.11;54.93;102555.00;4922682;29;20382;-72
2021/09/03 00:26:23;;;;;;;4.22;3.63;;;;;;;21.13;54.87;102563.81;4922556;29;20024;-72
2021/09/03 00:28:48;;;;;;;6.05;4.30;;;;;;;21.12;54.71;102556.78;4938351;29;20062;-72
2021/09/03 00:31:14;;;;;;;7.63;4.32;;;;;;;21.12;54.77;102554.16;4939630;29;20134;-72
2021/09/03 00:33:39;;;;;;;5.75;4.10;;;;;;;21.10;54.89;102547.09;4939386;29;20035;-72
2021/09/03 00:36:04;;;;;;;4.85;3.90;;;;;;;21.10;55.04;102545.34;4906623;29;20032;-71
2021/09/03 00:38:30;;;;;;;4.97;4.18;;;;;;;21.11;54.96;102543.59;4922360;29;20486;-71
2021/09/03 00:40:55;;;;;;;4.85;4.00;;;;;;;21.09;54.81;102543.59;4938245;29;20027;-72
2021/09/03 00:43:21;;;;;;;4.78;3.95;;;;;;;21.07;54.62;102539.16;4922119;29;20429;-72
2021/09/03 00:45:46;;;;;;;5.18;4.30;;;;;;;21.10;54.79;102539.19;4938028;29;20050;-71
2021/09/03 00:48:11;;;;;;;5.45;3.85;;;;;;;21.11;54.90;102546.22;4922318;29;20028;-71
2021/09/03 00:50:38;;;;;;;4.47;3.88;;;;;;;21.12;54.80;102548.00;4938193;29;20036;-72
2021/09/03 00:53:04;;;;;;;4.93;4.43;;;;;;;21.08;54.66;102541.81;4922008;29;20036;-71
2021/09/03 00:55:29;;;;;;;7.28;4.28;;;;;;;21.08;54.85;102533.91;4922308;29;20024;-71
2021/09/03 00:57:55;;;;;;;6.22;4.93;;;;;;;21.09;54.85;102540.06;4937911;29;20024;-71
2021/09/03 01:00:20;;;;;;;5.90;4.53;;;;;;;21.09;54.84;102530.44;4922099;29;20490;-71
2021/09/03 01:02:46;;;;;;;6.18;4.57;;;;;;;21.07;54.87;102526.88;4938037;29;20542;-73
2021/09/03 01:05:11;;;;;;;7.00;4.30;;;;;;;21.10;54.84;102528.69;4921950;29;20431;-72
2021/09/03 01:07:37;;;;;;;5.38;3.35;;;;;;;21.07;54.82;102518.13;4937807;29;20031;-72
2021/09/03 01:10:04;;;;;;;5.18;3.85;;;;;;;21.05;54.79;102521.59;4921803;29;20031;-71
2021/09/03 01:12:29;;;;;;;6.82;4.35;;;;;;;21.08;54.88;102525.16;4938789;29;20027;-72
2021/09/03 01:14:54;;;;;;;5.72;4.95;;;;;;;21.02;54.83;102503.19;4905915;29;20398;-71
2021/09/03 01:17:20;;;;;;;6.20;4.47;;;;;;;21.06;54.93;102514.59;4905824;29;20578;-71
2021/09/03 01:19:49;;;;;;;4.72;3.97;;;;;;;21.07;54.98;102508.47;4921522;29;20054;-71
2021/09/03 01:22:19;;;;;;;5.15;4.60;;;;;;;21.02;54.85;102507.56;4937476;29;20070;-71
2021/09/03 01:24:44;;;;;;;4.63;3.80;;;;;;;21.09;54.93;102513.75;4937003;29;20031;-72
2021/09/03 01:27:10;;;;;;;6.20;4.80;;;;;;;21.04;54.77;102506.69;4937253;29;20368;-71
2021/09/03 01:29:35;;;;;;;5.05;4.40;;;;;;;21.05;54.88;102502.31;4921305;29;20123;-71
2021/09/03 01:32:00;;;;;;;5.07;4.20;;;;;;;21.06;54.93;102501.44;4921539;29;20070;-71
2021/09/03 01:34:26;;;;;;;4.45;3.58;;;;;;;21.08;54.82;102499.72;4921285;29;20032;-72
2021/09/03 01:36:51;;;;;;;4.80;3.65;;;;;;;21.05;54.97;102497.94;4937101;29;20032;-72
2021/09/03 01:39:16;;;;;;;4.95;4.45;;;;;;;21.06;54.77;102501.44;4921160;29;20087;-71
2021/09/03 01:41:42;;;;;;;5.60;4.55;;;;;;;21.07;54.98;102503.22;4938363;29;20447;-72
2021/09/03 01:44:09;;;;;;;4.60;4.07;;;;;;;21.07;54.82;102500.59;4921215;29;20390;-71
2021/09/03 01:46:34;;;;;;;7.60;4.88;;;;;;;20.98;54.75;102487.34;4921559;29;20035;-72
2021/09/03 01:49:00;;;;;;;5.63;3.95;;;;;;;21.03;54.81;102496.19;4937085;29;20110;-71
2021/09/03 01:51:25;;;;;;;5.80;3.92;;;;;;;21.05;54.82;102495.31;4937545;29;20024;-71
2021/09/03 01:53:50;;;;;;;5.88;4.40;;;;;;;21.05;54.88;102497.06;4936840;29;20100;-71
2021/09/03 01:56:16;;;;;;;4.32;3.53;;;;;;;21.04;55.04;102493.53;4921438;29;20428;-71
2021/09/03 01:58:41;;;;;;;5.43;4.10;;;;;;;21.01;54.99;102495.28;4936789;29;20038;-72
2021/09/03 02:01:06;;;;;;;5.28;3.85;;;;;;;21.05;54.84;102497.94;4920848;29;20399;-71
2021/09/03 02:03:32;;;;;;;5.57;4.50;;;;;;;21.03;55.02;102499.66;4936644;29;20024;-71
2021/09/03 02:05:58;;;;;;;6.20;4.22;;;;;;;21.03;54.91;102496.19;4936890;29;20372;-72
2021/09/03 02:08:23;;;;;;;4.93;3.90;;;;;;;21.03;54.87;102496.19;4936557;29;20031;-72
2021/09/03 02:10:49;;;;;;;4.80;3.92;;;;;;;20.98;54.88;102493.50;4920872;29;20063;-72
2021/09/03 02:13:14;;;;;;;5.32;4.25;;;;;;;21.01;54.93;102490.91;4936476;29;20034;-72
2021/09/03 02:15:40;;;;;;;4.25;3.42;;;;;;;21.04;54.88;102490.91;4920546;29;20067;-73
2021/09/03 02:18:06;;;;;;;5.03;4.13;;;;;;;21.04;54.87;102488.28;4920529;29;20134;-72
2021/09/03 02:20:31;;;;;;;6.10;3.95;;;;;;;21.05;54.84;102486.53;4936652;29;20075;-72
2021/09/03 02:22:56;;;;;;;4.53;4.07;;;;;;;21.04;55.02;102484.75;4936499;29;20110;-72
2021/09/03 02:25:22;;;;;;;6.00;3.88;;;;;;;20.99;55.00;102474.22;4937512;29;20032;-72
2021/09/03 02:27:47;;;;;;;4.15;3.65;;;;;;;21.03;54.96;102475.16;4904726;29;20024;-72
2021/09/03 02:30:13;;;;;;;6.85;4.40;;;;;;;21.02;55.02;102474.25;4920607;29;20035;-71
2021/09/03 02:32:38;;;;;;;5.60;3.78;;;;;;;21.03;54.95;102478.63;4935967;29;20032;-71
2021/09/03 02:35:04;;;;;;;5.13;4.10;;;;;;;21.03;54.81;102473.34;4936987;29;20095;-72
2021/09/03 02:37:29;;;;;;;5.68;4.40;;;;;;;20.99;55.03;102468.97;4919667;29;20098;-71
2021/09/03 02:39:55;;;;;;;5.18;4.10;;;;;;;20.97;54.95;102462.78;4920136;29;20036;-71
2021/09/03 02:42:20;;;;;;;7.28;4.00;;;;;;;20.99;54.93;102466.31;4920094;29;20050;-72
2021/09/03 02:44:45;;;;;;;5.68;4.20;;;;;;;20.99;55.05;102460.19;4936143;29;20040;-71
2021/09/03 02:47:11;;;;;;;4.45;4.05;;;;;;;21.01;54.83;102458.47;4935951;29;20031;-72
2021/09/03 02:49:36;;;;;;;4.30;3.40;;;;;;;20.99;55.05;102461.06;4936962;29;20039;-71
2021/09/03 02:52:02;;;;;;;7.03;4.65;;;;;;;21.00;55.10;102454.06;4935759;29;20039;-71
2021/09/03 02:54:27;;;;;;;6.32;4.57;;;;;;;21.01;55.02;102454.06;4919928;29;20032;-72
2021/09/03 02:56:53;;;;;;;5.85;3.72;;;;;;;21.02;54.91;102449.69;4919821;29;20038;-71
2021/09/03 02:59:18;;;;;;;5.18;3.83;;;;;;;21.01;54.95;102448.81;4919886;29;20367;-71
2021/09/03 03:01:43;;;;;;;4.90;3.90;;;;;;;21.02;54.84;102447.06;4937023;29;20074;-71
2021/09/03 03:04:09;;;;;;;5.60;4.40;;;;;;;21.01;54.97;102442.69;4935627;29;20501;-71
2021/09/03 03:06:34;;;;;;;5.05;3.90;;;;;;;21.02;54.99;102441.81;4919725;29;20478;-71
2021/09/03 03:09:00;;;;;;;4.70;3.80;;;;;;;21.00;54.80;102435.66;4936787;29;20115;-72
2021/09/03 03:11:25;;;;;;;4.18;3.33;;;;;;;20.98;54.89;102432.13;4919678;29;20035;-71
2021/09/03 03:13:59;;;;;;;4.43;4.00;;;;;;;21.00;54.92;102433.91;4919434;29;20036;-71
2021/09/03 03:16:24;;;;;;;4.72;3.63;;;;;;;20.98;54.94;102427.75;4935559;29;20125;-71
2021/09/03 03:18:49;;;;;;;4.53;3.50;;;;;;;20.99;55.05;102429.50;4903765;29;20634;-71
2021/09/03 03:21:15;;;;;;;4.75;4.18;;;;;;;21.00;54.90;102433.03;4903876;29;20383;-71
2021/09/03 03:23:40;;;;;;;5.28;3.75;;;;;;;20.94;55.03;102417.16;4936580;29;20030;-73
2021/09/03 03:26:05;;;;;;;5.70;4.30;;;;;;;20.95;55.08;102421.56;4919685;29;20055;-72
2021/09/03 03:28:31;;;;;;;4.82;4.18;;;;;;;20.96;54.92;102416.31;4935294;29;20431;-71
2021/09/03 03:30:56;;;;;;;5.72;4.18;;;;;;;21.01;55.13;102424.25;4919539;29;20027;-72
2021/09/03 03:33:21;;;;;;;4.97;4.25;;;;;;;20.95;55.09;102408.41;4934956;29;20032;-71
2021/09/03 03:35:47;;;;;;;7.20;3.55;;;;;;;20.98;54.84;102414.59;4919289;29;20042;-72
2021/09/03 03:38:12;;;;;;;5.13;4.38;;;;;;;20.98;55.07;102413.72;4936349;29;20110;-72
2021/09/03 03:40:37;;;;;;;4.15;3.45;;;;;;;20.92;54.96;102400.47;4935075;29;20046;-73
2021/09/03 03:43:03;;;;;;;4.72;4.22;;;;;;;20.95;55.02;102409.28;4919183;29;20502;-71
2021/09/03 03:45:29;;;;;;;4.55;3.80;;;;;;;20.83;54.90;102390.78;4935291;29;20036;-72
2021/09/03 03:47:54;;;;;;;4.20;3.53;;;;;;;20.96;55.02;102418.94;4934815;29;20063;-72
2021/09/03 03:50:20;;;;;;;5.78;4.05;;;;;;;20.98;55.05;102411.97;4936204;29;20039;-71
2021/09/03 03:52:45;;;;;;;6.15;4.25;;;;;;;21.00;54.98;102414.59;4936038;29;20046;-71
2021/09/03 03:55:10;;;;;;;4.70;3.25;;;;;;;20.96;55.06;102410.19;4919120;29;20023;-71
2021/09/03 03:57:36;;;;;;;4.75;4.25;;;;;;;20.94;54.92;102409.28;4934905;29;20036;-72
2021/09/03 04:00:03;;;;;;;4.55;3.85;;;;;;;20.98;55.01;102416.34;4935967;29;20035;-71
2021/09/03 04:02:28;;;;;;;4.80;4.20;;;;;;;20.93;55.04;102405.75;4934876;29;20115;-71
2021/09/03 04:04:53;;;;;;;5.13;4.20;;;;;;;20.95;55.00;102405.78;4934938;29;20179;-71
2021/09/03 04:07:19;;;;;;;5.53;4.55;;;;;;;20.94;54.91;102399.63;4918811;29;20030;-71
2021/09/03 04:09:44;;;;;;;4.28;3.63;;;;;;;20.98;54.95;102408.44;4934677;29;20050;-70
2021/09/03 04:12:10;;;;;;;6.15;4.57;;;;;;;20.97;54.93;102402.31;4936076;29;20169;-71
2021/09/03 04:14:36;;;;;;;4.50;4.03;;;;;;;20.96;54.83;102392.66;4919155;29;20028;-71
2021/09/03 04:17:01;;;;;;;4.47;3.97;;;;;;;20.93;55.10;102392.63;4934577;29;20035;-71
2021/09/03 04:19:27;;;;;;;4.00;3.60;;;;;;;20.95;55.15;102387.38;4887554;29;20087;-71
2021/09/03 04:21:52;;;;;;;4.88;3.50;;;;;;;20.95;55.13;102398.78;4887806;29;20034;-71
2021/09/03 04:24:18;;;;;;;4.57;4.07;;;;;;;20.96;54.97;102397.03;4935940;29;20062;-71
2021/09/03 04:26:43;;;;;;;5.40;3.70;;;;;;;20.92;55.04;102393.47;4902919;29;20533;-71
2021/09/03 04:29:09;;;;;;;5.97;4.43;;;;;;;20.95;54.93;102395.25;4903065;29;20035;-71
2021/09/03 04:31:34;;;;;;;5.45;4.93;;;;;;;20.99;54.85;102402.31;4903065;29;20035;-73
2021/09/03 04:34:00;;;;;;;6.72;4.28;;;;;;;20.96;55.16;102390.03;4935850;29;20056;-72
2021/09/03 04:36:25;;;;;;;6.50;3.88;;;;;;;21.01;54.99;102400.59;4902985;29;20047;-71
2021/09/03 04:38:51;;;;;;;4.80;4.05;;;;;;;20.97;54.76;102391.78;4935655;29;20042;-71
2021/09/03 04:41:16;;;;;;;5.47;4.20;;;;;;;20.97;54.79;102393.53;4902961;29;20039;-71
2021/09/03 04:43:41;;;;;;;6.15;4.95;;;;;;;20.96;54.96;102386.50;4903194;29;20181;-72
2021/09/03 04:46:07;;;;;;;4.93;3.65;;;;;;;20.96;55.00;102384.75;4903022;29;20475;-70
2021/09/03 04:48:32;;;;;;;7.47;4.22;;;;;;;20.94;54.94;102383.84;4887247;29;20031;-71
2021/09/03 04:50:58;;;;;;;5.13;3.70;;;;;;;20.98;54.98;102387.41;4918562;29;20032;-71
2021/09/03 04:53:23;;;;;;;5.85;3.97;;;;;;;20.99;54.91;102391.81;4918548;29;20028;-73
2021/09/03 04:55:48;;;;;;;6.88;4.18;;;;;;;20.98;55.10;102385.66;4887198;29;20059;-73
2021/09/03 04:58:14;;;;;;;6.47;4.45;;;;;;;20.95;54.76;102375.09;4902859;29;20076;-72
2021/09/03 05:00:39;;;;;;;6.90;4.15;;;;;;;21.02;55.10;102387.47;4921713;29;20028;-72
2021/09/03 05:03:05;;;;;;;8.25;5.13;;;;;;;20.99;55.20;102376.03;4906250;29;20031;-72
2021/09/03 05:05:30;;;;;;;5.53;4.20;;;;;;;20.96;55.03;102373.34;4921896;29;20115;-72
2021/09/03 05:07:55;;;;;;;11.15;4.82;;;;;;;20.93;55.36;102376.84;4906186;29;20391;-72
2021/09/03 05:10:21;;;;;;;9.75;4.32;;;;;;;20.98;55.01;102388.28;4921817;29;20094;-71
2021/09/03 05:12:46;;;;;;;8.90;6.20;;;;;;;20.97;55.04;102391.78;4938865;29;20043;-71
2021/09/03 05:15:14;;;;;;;5.43;4.70;;;;;;;20.95;54.77;102388.25;4921639;29;20035;-71
2021/09/03 05:17:42;;;;;;;9.75;6.22;;;;;;;20.90;54.85;102387.31;4938735;29;20526;-72
2021/09/03 05:20:09;;;;;;;9.00;5.70;;;;;;;20.90;55.03;102382.06;4921583;29;20031;-72
2021/09/03 05:22:34;;;;;;;8.77;5.40;;;;;;;20.91;54.85;102382.94;4921803;29;20032;-72
2021/09/03 05:25:01;;;;;;;8.82;6.20;;;;;;;20.86;54.82;102375.03;4938781;29;20043;-72
2021/09/03 05:27:26;;;;;;;14.30;9.75;;;;;;;20.45;54.22;102382.47;4906092;29;20023;-72
2021/09/03 05:29:52;;;;;;;16.52;10.15;;;;;;;19.59;55.24;102377.84;4925067;29;20038;-78
2021/09/03 05:32:17;;;;;;;13.60;11.35;;;;;;;19.03;56.54;102357.66;4911582;29;20505;-76
2021/09/03 05:34:43;;;;;;;16.50;11.27;;;;;;;19.21;56.30;102378.94;4906813;29;20032;-73
2021/09/03 05:37:08;;;;;;;17.77;10.93;;;;;;;19.07;56.93;102391.81;4905798;29;20482;-73
2021/09/03 05:39:34;;;;;;;15.20;10.85;;;;;;;18.95;56.58;102383.75;4905725;29;20092;-72
2021/09/03 05:41:59;;;;;;;20.50;12.32;;;;;;;18.92;56.98;102391.56;4938307;29;20038;-72
2021/09/03 05:44:25;;;;;;;21.55;12.48;;;;;;;19.04;56.76;102391.78;4921384;29;20549;-72
2021/09/03 05:46:51;;;;;;;18.75;11.85;;;;;;;18.80;57.26;102379.13;4921469;29;20118;-73
2021/09/03 05:49:17;;;;;;;14.02;10.65;;;;;;;18.55;57.98;102383.00;4905513;29;20064;-71
2021/09/03 05:51:42;;;;;;;21.67;12.85;;;;;;;18.54;58.19;102382.97;4905388;29;20031;-72
2021/09/03 05:54:08;;;;;;;17.25;11.95;;;;;;;18.44;58.36;102386.22;4938254;29;20039;-73
2021/09/03 05:56:34;;;;;;;15.23;11.70;;;;;;;18.23;59.16;102370.97;4905573;29;20123;-72
2021/09/03 05:59:01;;;;;;;21.77;13.07;;;;;;;18.13;59.65;102377.75;4905530;29;20079;-72
2021/09/03 06:01:27;;;;;;;19.65;13.45;;;;;;;18.08;59.48;102374.16;4905988;29;20034;-72
2021/09/03 06:03:52;;;;;;;18.15;12.00;;;;;;;17.97;60.40;102374.78;4905122;29;20475;-72
2021/09/03 06:06:17;;;;;;;14.95;11.93;;;;;;;17.95;60.47;102382.59;4920893;29;20036;-73
2021/09/03 06:08:43;;;;;;;14.63;11.88;;;;;;;18.00;60.54;102380.97;4905113;29;20538;-71
2021/09/03 06:11:08;;;;;;;17.27;13.10;;;;;;;18.05;60.38;102386.28;4919956;29;20063;-71
2021/09/03 06:13:34;;;;;;;22.38;12.40;;;;;;;18.00;60.28;102367.00;4937864;29;20031;-71
2021/09/03 06:16:00;;;;;;;18.02;12.88;;;;;;;18.13;60.43;102383.00;4937927;29;20031;-71
2021/09/03 06:18:25;;;;;;;13.82;10.52;;;;;;;18.41;59.68;102380.94;4928939;29;20055;-72
2021/09/03 06:20:50;;;;;;;13.88;9.48;;;;;;;19.05;58.08;102379.53;4937590;29;20044;-71
2021/09/03 06:23:16;;;;;;;17.50;9.23;;;;;;;19.51;56.57;102376.81;4936406;29;20024;-72
2021/09/03 06:25:41;;;;;;;13.00;9.25;;;;;;;19.81;56.20;102372.88;4936355;29;20431;-72
2021/09/03 06:28:06;;;;;;;14.15;8.73;;;;;;;20.01;55.40;102375.75;4904653;29;20063;-72
2021/09/03 06:30:32;;;;;;;11.95;8.77;;;;;;;20.16;55.21;102374.22;4937410;29;20031;-71
2021/09/03 06:32:57;;;;;;;12.07;7.28;;;;;;;20.27;55.24;102390.97;4920258;29;20036;-72
2021/09/03 06:35:23;;;;;;;9.80;6.90;;;;;;;20.31;55.24;102387.53;4936003;29;20055;-71
2021/09/03 06:37:48;;;;;;;13.23;7.53;;;;;;;20.41;54.93;102391.19;4920173;29;20126;-71
2021/09/03 06:40:13;;;;;;;12.73;7.50;;;;;;;20.46;54.96;102386.88;4935991;29;20119;-71
2021/09/03 06:42:39;;;;;;;11.13;6.78;;;;;;;20.54;54.72;102386.94;4937144;29;20058;-71
2021/09/03 06:45:05;;;;;;;9.32;7.13;;;;;;;20.55;54.88;102388.72;4935782;29;20127;-71
2021/09/03 06:47:30;;;;;;;7.80;6.70;;;;;;;20.61;54.79;102389.69;4937220;29;20063;-71
2021/09/03 06:49:56;;;;;;;12.50;6.15;;;;;;;20.65;54.74;102386.19;4937189;29;20083;-72
2021/09/03 06:52:30;;;;;;;8.55;6.25;;;;;;;20.70;54.80;102394.13;4919933;29;20043;-71
2021/09/03 06:55:00;;;;;;;9.57;6.30;;;;;;;20.73;54.84;102388.03;4936174;29;20055;-71
2021/09/03 06:57:25;;;;;;;11.15;6.45;;;;;;;20.74;54.59;102384.53;4935879;29;20042;-72
2021/09/03 06:59:51;;;;;;;6.80;5.70;;;;;;;20.79;54.60;102385.44;4920081;29;20036;-71
2021/09/03 07:02:17;;;;;;;6.90;5.70;;;;;;;20.78;54.86;102381.06;4919748;29;20066;-72
2021/09/03 07:04:42;;;;;;;7.80;5.47;;;;;;;20.78;54.60;102376.69;4935733;29;20043;-72
2021/09/03 07:07:08;;;;;;;7.00;6.05;;;;;;;20.85;54.60;102380.28;4935664;29;20055;-72
2021/09/03 07:09:33;;;;;;;7.47;5.55;;;;;;;20.87;54.72;102391.69;4935786;29;20079;-72
2021/09/03 07:11:59;;;;;;;6.45;5.30;;;;;;;20.86;54.81;102380.28;4935535;29;20538;-72
2021/09/03 07:14:24;;;;;;;6.90;5.22;;;;;;;20.86;54.73;102377.66;4935463;29;20041;-71
2021/09/03 07:16:49;;;;;;;6.85;5.63;;;;;;;20.88;54.73;102370.66;4919697;29;20577;-72
2021/09/03 07:19:15;;;;;;;9.18;4.85;;;;;;;20.95;54.80;102376.84;4920803;29;20130;-72
2021/09/03 07:21:40;;;;;;;7.18;5.20;;;;;;;20.96;54.92;102373.34;4935449;29;20035;-72
2021/09/03 07:24:06;;;;;;;11.57;5.38;;;;;;;20.96;54.83;102370.72;4936642;29;20059;-72
2021/09/03 07:26:31;;;;;;;7.13;5.70;;;;;;;21.00;54.71;102378.66;4935465;29;20390;-72
2021/09/03 07:28:57;;;;;;;7.07;5.68;;;;;;;21.00;54.84;102369.91;4935299;29;20035;-72
2021/09/03 07:31:22;;;;;;;8.35;5.75;;;;;;;20.99;54.74;102365.50;4936478;29;20035;-73
2021/09/03 07:33:48;;;;;;;6.57;5.97;;;;;;;21.03;54.49;102359.41;4935101;29;20024;-72
2021/09/03 07:36:14;;;;;;;6.05;5.38;;;;;;;21.04;54.68;102364.66;4935144;29;20028;-72
2021/09/03 07:38:39;;;;;;;8.07;5.95;;;;;;;21.05;54.67;102365.53;4935174;29;20034;-71
2021/09/03 07:41:05;;;;;;;6.50;4.80;;;;;;;21.05;54.84;102358.53;4936324;29;20055;-72
2021/09/03 07:43:30;;;;;;;6.88;4.85;;;;;;;21.07;54.89;102358.53;4919250;29;20032;-71
2021/09/03 07:45:56;;;;;;;6.88;4.97;;;;;;;21.12;54.78;102363.84;4919235;29;20027;-72
2021/09/03 07:48:23;;;;;;;12.15;5.63;;;;;;;21.10;54.80;102363.84;4936401;29;20046;-72
2021/09/03 07:50:49;;;;;;;7.57;5.28;;;;;;;21.12;54.77;102358.59;4936348;29;20023;-71
2021/09/03 07:53:14;;;;;;;7.90;4.97;;;;;;;21.15;54.89;102361.25;4936117;29;20036;-72
2021/09/03 07:55:40;;;;;;;8.73;5.18;;;;;;;21.15;54.92;102364.78;4935043;29;20494;-73
2021/09/03 07:58:06;;;;;;;8.27;6.03;;;;;;;21.19;55.06;102366.56;4935138;29;20034;-73
2021/09/03 08:00:33;;;;;;;7.25;5.80;;;;;;;21.21;54.88;102361.31;4936142;29;20375;-73
2021/09/03 08:02:59;;;;;;;9.35;5.55;;;;;;;21.21;54.84;102354.31;4935205;29;20522;-74
2021/09/03 08:05:24;;;;;;;10.00;7.45;;;;;;;21.26;55.07;102364.88;4934889;29;20032;-74
2021/09/03 08:07:49;;;;;;;14.35;8.55;;;;;;;21.25;55.18;102363.13;4903442;29;20039;-74
2021/09/03 08:10:16;;;;;;;16.05;9.60;;;;;;;21.28;55.20;102365.78;4935133;29;20054;-71
2021/09/03 08:12:42;;;;;;;15.50;10.57;;;;;;;21.31;55.09;102357.88;4918986;29;20039;-71
2021/09/03 08:15:09;;;;;;;17.75;11.52;;;;;;;21.32;55.07;102364.91;4934791;29;20479;-72
2021/09/03 08:17:35;;;;;;;18.02;10.52;;;;;;;21.30;55.15;102356.13;4934591;29;20060;-71
2021/09/03 08:20:02;;;;;;;15.77;12.20;;;;;;;21.25;55.21;102353.47;4919441;29;20050;-72
2021/09/03 08:22:27;;;;;;;13.55;10.48;;;;;;;21.30;55.31;102364.00;4919235;29;20036;-71
2021/09/03 08:24:53;;;;;;;13.23;9.98;;;;;;;21.30;55.41;102361.38;4919217;29;20059;-72
2021/09/03 08:27:18;;;;;;;15.85;10.82;;;;;;;21.29;55.29;102368.41;4919014;29;20036;-72
2021/09/03 08:29:45;;;;;;;16.13;11.70;;;;;;;21.26;55.14;102360.50;4903348;29;20036;-72
2021/09/03 08:32:11;;;;;;;17.83;11.63;;;;;;;21.31;54.99;102363.16;4919189;29;20035;-71
2021/09/03 08:34:36;;;;;;;17.35;11.30;;;;;;;21.31;55.24;102360.50;4904912;29;20379;-72
2021/09/03 08:37:02;;;;;;;15.07;12.07;;;;;;;21.26;54.96;102355.25;4939816;29;20036;-72
2021/09/03 08:39:27;;;;;;;16.90;12.32;;;;;;;21.27;55.07;102353.50;4906857;29;20024;-71
2021/09/03 08:41:53;;;;;;;18.80;12.68;;;;;;;21.28;55.04;102358.78;4922613;29;20031;-72
2021/09/03 08:44:18;;;;;;;15.77;11.30;;;;;;;21.31;55.16;102357.88;4922385;29;20106;-71
2021/09/03 08:46:45;;;;;;;16.05;12.43;;;;;;;21.32;54.91;102364.91;4939405;29;20388;-71
2021/09/03 08:49:11;;;;;;;16.73;13.45;;;;;;;21.25;55.14;102358.75;4922465;29;20111;-72
2021/09/03 08:51:37;;;;;;;18.58;13.02;;;;;;;21.27;55.07;102369.28;4922318;29;20038;-71
2021/09/03 08:54:03;;;;;;;17.15;13.73;;;;;;;21.30;54.97;102364.91;4922327;29;20494;-71
2021/09/03 08:56:29;;;;;;;14.75;11.02;;;;;;;21.26;54.99;102359.63;4939380;29;20043;-71
2021/09/03 08:58:54;;;;;;;20.15;13.70;;;;;;;21.30;54.92;102361.38;4939177;29;20031;-73
2021/09/03 09:01:20;;;;;;;16.40;11.82;;;;;;;21.27;54.95;102359.63;4922103;29;20036;-72
2021/09/03 09:03:51;;;;;;;19.85;12.93;;;;;;;21.26;54.85;102354.34;4922204;29;20046;-72
2021/09/03 09:06:27;;;;;;;18.55;14.02;;;;;;;21.28;54.87;102360.53;4922231;29;20111;-72
2021/09/03 09:08:56;;;;;;;15.85;12.63;;;;;;;21.33;54.78;102371.94;4940279;29;20023;-73
2021/09/03 09:11:27;;;;;;;19.00;13.25;;;;;;;21.33;54.90;102377.19;4922037;29;20031;-73
2021/09/03 09:13:57;;;;;;;19.58;13.48;;;;;;;21.33;54.99;102372.81;4938903;29;20047;-72
2021/09/03 09:16:23;;;;;;;18.85;14.18;;;;;;;21.30;54.86;102372.78;4938982;29;20019;-72
2021/09/03 09:18:49;;;;;;;18.38;11.75;;;;;;;21.32;54.89;102378.94;4931405;29;20059;-72
2021/09/03 09:21:30;;;;;;;14.25;11.82;;;;;;;21.33;54.84;102379.84;4937594;29;20167;-72
2021/09/03 09:24:04;;;;;;;16.73;13.68;;;;;;;21.30;54.79;102366.66;4938800;29;20027;-71
2021/09/03 09:26:48;;;;;;;19.88;12.55;;;;;;;21.32;54.79;102375.44;4937624;29;20051;-71
2021/09/03 09:29:18;;;;;;;18.45;13.25;;;;;;;21.32;54.74;102370.19;4938762;29;20498;-72
2021/09/03 09:31:46;;;;;;;19.85;12.32;;;;;;;21.28;54.67;102365.78;4937587;29;20031;-71
2021/09/03 09:34:21;;;;;;;16.27;12.27;;;;;;;21.31;54.76;102374.56;4938650;29;20028;-71
2021/09/03 09:36:49;;;;;;;16.00;12.60;;;;;;;21.31;54.53;102374.56;4937401;29;20024;-71
2021/09/03 09:39:15;;;;;;;11.68;10.45;;;;;;;21.31;54.72;102374.56;4938764;29;20359;-71
2021/09/03 09:41:43;;;;;;;16.38;13.55;;;;;;;21.25;54.61;102364.00;4937303;29;20032;-72
2021/09/03 09:44:08;;;;;;;14.00;11.23;;;;;;;21.26;54.61;102360.50;4921887;29;20058;-71
2021/09/03 09:46:33;;;;;;;14.57;11.90;;;;;;;21.29;54.66;102364.91;4938335;29;20059;-71
2021/09/03 09:49:02;;;;;;;16.45;11.90;;;;;;;21.27;54.47;102364.91;4937150;29;20031;-71
2021/09/03 09:51:43;;;;;;;16.55;12.52;;;;;;;21.30;54.46;102366.66;4937194;29;20032;-72
2021/09/03 09:54:22;;;;;;;16.05;11.75;;;;;;;21.31;54.32;102363.16;4936996;29;20031;-71
2021/09/03 09:56:50;;;;;;;16.50;11.68;;;;;;;21.29;54.33;102357.03;4938289;29;20123;-72
2021/09/03 09:59:17;;;;;;;13.52;10.63;;;;;;;21.27;54.41;102350.84;4938430;29;20359;-71
2021/09/03 10:01:44;;;;;;;12.68;10.30;;;;;;;21.27;54.36;102345.59;4938495;29;20055;-71
2021/09/03 10:04:12;;;;;;;15.73;11.48;;;;;;;21.29;54.31;102352.59;4936880;29;20027;-71
2021/09/03 10:06:40;;;;;;;17.77;11.55;;;;;;;21.26;54.05;102346.47;4936737;29;20031;-72
2021/09/03 10:09:08;;;;;;;18.35;11.32;;;;;;;21.29;53.90;102349.13;4938060;29;20028;-72
2021/09/03 10:11:36;;;;;;;15.90;11.98;;;;;;;21.29;54.29;102349.13;4936786;29;20031;-71
2021/09/03 10:14:04;;;;;;;14.63;10.80;;;;;;;21.28;54.12;102357.88;4937649;29;20035;-71
2021/09/03 10:16:29;;;;;;;14.20;10.18;;;;;;;21.28;54.19;102356.13;4937535;29;20028;-72
2021/09/03 10:18:57;;;;;;;17.50;11.25;;;;;;;21.26;54.17;102344.72;4920599;29;20406;-71
2021/09/03 10:21:24;;;;;;;14.40;11.52;;;;;;;21.23;54.17;102333.28;4937687;29;20027;-71
2021/09/03 10:23:51;;;;;;;12.77;9.85;;;;;;;21.22;54.20;102331.53;4936486;29;20031;-73
2021/09/03 10:26:21;;;;;;;14.10;10.65;;;;;;;21.25;54.21;102342.94;4936388;29;20028;-71
2021/09/03 10:28:47;;;;;;;12.35;9.68;;;;;;;21.27;54.02;102340.34;4937372;29;20105;-71
2021/09/03 10:31:18;;;;;;;12.77;9.73;;;;;;;21.28;54.12;102342.09;4936424;29;20031;-72
2021/09/03 10:33:44;;;;;;;13.30;10.00;;;;;;;21.28;54.06;102344.72;4936231;29;20024;-72
2021/09/03 10:36:09;;;;;;;16.73;10.65;;;;;;;21.28;54.13;102339.47;4936043;29;20034;-71
2021/09/03 10:38:40;;;;;;;15.75;10.38;;;;;;;21.25;54.16;102334.19;4935955;29;20042;-72
2021/09/03 10:41:06;;;;;;;14.15;9.48;;;;;;;21.29;54.07;102335.97;4936210;29;20038;-72
2021/09/03 10:43:42;;;;;;;13.25;9.85;;;;;;;21.26;53.97;102339.47;4920080;29;20032;-71
2021/09/03 10:46:13;;;;;;;12.68;9.75;;;;;;;21.27;53.97;102335.06;4937275;29;20079;-72
2021/09/03 10:48:38;;;;;;;12.02;9.43;;;;;;;21.26;54.08;102323.66;4937287;29;20032;-72
2021/09/03 10:51:05;;;;;;;14.57;10.68;;;;;;;21.28;53.99;102331.56;4935853;29;20043;-71
2021/09/03 10:53:43;;;;;;;11.20;9.65;;;;;;;21.26;53.88;102322.78;4935956;29;20032;-72
2021/09/03 10:56:23;;;;;;;13.00;10.07;;;;;;;21.24;53.85;102311.38;4937070;29;20546;-73
2021/09/03 10:58:51;;;;;;;12.48;9.70;;;;;;;21.24;54.04;102314.88;4938585;29;20028;-78
2021/09/03 11:01:26;;;;;;;17.02;10.90;;;;;;;21.25;53.98;102324.53;4937122;29;20031;-75
2021/09/03 11:03:51;;;;;;;12.10;9.73;;;;;;;21.27;54.01;102319.28;4937127;29;20035;-74
2021/09/03 11:06:26;;;;;;;13.10;9.68;;;;;;;21.26;54.11;102312.25;4937510;29;20028;-75
2021/09/03 11:09:16;;;;;;;14.93;9.52;;;;;;;21.27;54.07;102308.75;4939898;29;20035;-75
2021/09/03 11:11:51;;;;;;;20.83;10.30;;;;;;;21.26;54.17;102307.00;4937472;29;20027;-74
2021/09/03 11:14:19;;;;;;;15.02;9.82;;;;;;;21.23;54.07;102291.19;4921118;29;20027;-74
2021/09/03 11:16:51;;;;;;;15.13;9.10;;;;;;;21.23;54.02;102294.69;4935959;29;20062;-74